sensor_id;sensor_type;location;lat;lon;timestamp;pressure;altitude;pressure_sealevel;temperature;humidity
62849;BME280;48941;49.516;8.286;2023-04-05T00:00:35;101104.38;;;2.91;68.93
62849;BME280;48941;49.516;8.286;2023-04-05T00:03:03;101103.81;;;2.83;69.40
62849;BME280;48941;49.516;8.286;2023-04-05T00:05:31;101104.78;;;2.81;68.96
62849;BME280;48941;49.516;8.286;2023-04-05T00:08:01;101105.06;;;2.73;69.15
62849;BME280;48941;49.516;8.286;2023-04-05T00:10:30;101106.13;;;2.67;68.92
62849;BME280;48941;49.516;8.286;2023-04-05T00:12:58;101106.22;;;2.66;69.07
62849;BME280;48941;49.516;8.286;2023-04-05T00:15:26;101101.91;;;2.63;69.08
62849;BME280;48941;49.516;8.286;2023-04-05T00:17:54;101098.44;;;2.63;69.64
62849;BME280;48941;49.516;8.286;2023-04-05T00:20:23;101098.53;;;2.59;69.92
62849;BME280;48941;49.516;8.286;2023-04-05T00:22:51;101101.28;;;2.56;69.80
62849;BME280;48941;49.516;8.286;2023-04-05T00:25:20;101091.81;;;2.51;69.94
62849;BME280;48941;49.516;8.286;2023-04-05T00:27:48;101090.03;;;2.51;70.15
62849;BME280;48941;49.516;8.286;2023-04-05T00:30:15;101092.22;;;2.40;70.44
62849;BME280;48941;49.516;8.286;2023-04-05T00:32:46;101094.03;;;2.38;70.35
62849;BME280;48941;49.516;8.286;2023-04-05T00:35:15;101100.16;;;2.38;70.08
62849;BME280;48941;49.516;8.286;2023-04-05T00:37:42;101092.13;;;2.42;69.79
62849;BME280;48941;49.516;8.286;2023-04-05T00:40:10;101091.28;;;2.41;69.66
62849;BME280;48941;49.516;8.286;2023-04-05T00:42:39;101088.63;;;2.43;69.65
62849;BME280;48941;49.516;8.286;2023-04-05T00:45:07;101086.88;;;2.42;69.85
62849;BME280;48941;49.516;8.286;2023-04-05T00:47:35;101087.06;;;2.37;69.79
62849;BME280;48941;49.516;8.286;2023-04-05T00:50:05;101080.91;;;2.38;69.85
62849;BME280;48941;49.516;8.286;2023-04-05T00:52:34;101077.34;;;2.39;69.77
62849;BME280;48941;49.516;8.286;2023-04-05T00:55:03;101073.16;;;2.33;69.83
62849;BME280;48941;49.516;8.286;2023-04-05T00:57:33;101073.53;;;2.23;69.83
62849;BME280;48941;49.516;8.286;2023-04-05T01:00:07;101067.78;;;2.11;69.94
62849;BME280;48941;49.516;8.286;2023-04-05T01:02:43;101074.84;;;2.09;69.63
62849;BME280;48941;49.516;8.286;2023-04-05T01:05:19;101073.09;;;2.10;68.70
62849;BME280;48941;49.516;8.286;2023-04-05T01:07:53;101060.00;;;2.08;68.65
62849;BME280;48941;49.516;8.286;2023-04-05T01:10:27;101064.56;;;2.03;68.86
62849;BME280;48941;49.516;8.286;2023-04-05T01:12:57;101068.03;;;2.04;68.75
62849;BME280;48941;49.516;8.286;2023-04-05T01:15:26;101070.75;;;2.02;68.32
62849;BME280;48941;49.516;8.286;2023-04-05T01:17:54;101065.63;;;1.97;68.25
62849;BME280;48941;49.516;8.286;2023-04-05T01:20:23;101064.94;;;1.92;68.93
62849;BME280;48941;49.516;8.286;2023-04-05T01:26:22;101054.38;;;1.94;68.35
62849;BME280;48941;49.516;8.286;2023-04-05T01:31:59;101056.34;;;1.87;68.40
62849;BME280;48941;49.516;8.286;2023-04-05T01:34:36;101058.03;;;1.90;68.34
62849;BME280;48941;49.516;8.286;2023-04-05T01:37:08;101056.03;;;1.96;68.19
62849;BME280;48941;49.516;8.286;2023-04-05T01:39:38;101056.19;;;1.92;68.40
62849;BME280;48941;49.516;8.286;2023-04-05T01:42:06;101061.63;;;1.86;68.16
62849;BME280;48941;49.516;8.286;2023-04-05T01:44:34;101052.00;;;1.86;67.88
62849;BME280;48941;49.516;8.286;2023-04-05T01:47:04;101052.69;;;1.91;67.68
62849;BME280;48941;49.516;8.286;2023-04-05T01:49:31;101050.88;;;1.93;67.33
62849;BME280;48941;49.516;8.286;2023-04-05T01:51:59;101046.59;;;1.91;67.13
62849;BME280;48941;49.516;8.286;2023-04-05T01:54:27;101048.44;;;1.87;67.29
62849;BME280;48941;49.516;8.286;2023-04-05T01:56:54;101054.59;;;1.88;67.35
62849;BME280;48941;49.516;8.286;2023-04-05T01:59:22;101053.75;;;1.86;67.22
62849;BME280;48941;49.516;8.286;2023-04-05T02:01:51;101048.56;;;1.84;67.25
62849;BME280;48941;49.516;8.286;2023-04-05T02:04:20;101046.88;;;1.82;67.18
62849;BME280;48941;49.516;8.286;2023-04-05T02:06:48;101045.22;;;1.79;67.20
62849;BME280;48941;49.516;8.286;2023-04-05T02:09:16;101053.31;;;1.73;67.49
62849;BME280;48941;49.516;8.286;2023-04-05T02:11:43;101048.34;;;1.64;67.45
62849;BME280;48941;49.516;8.286;2023-04-05T02:14:11;101045.09;;;1.55;67.79
62849;BME280;48941;49.516;8.286;2023-04-05T02:16:39;101049.44;;;1.58;67.64
62849;BME280;48941;49.516;8.286;2023-04-05T02:19:08;101039.97;;;1.52;67.85
62849;BME280;48941;49.516;8.286;2023-04-05T02:21:37;101045.19;;;1.54;67.81
62849;BME280;48941;49.516;8.286;2023-04-05T02:24:06;101046.03;;;1.54;67.94
62849;BME280;48941;49.516;8.286;2023-04-05T02:26:34;101046.13;;;1.51;68.25
62849;BME280;48941;49.516;8.286;2023-04-05T02:29:02;101043.44;;;1.53;68.37
62849;BME280;48941;49.516;8.286;2023-04-05T02:31:29;101041.84;;;1.49;68.22
62849;BME280;48941;49.516;8.286;2023-04-05T02:33:57;101042.69;;;1.49;68.50
62849;BME280;48941;49.516;8.286;2023-04-05T02:36:26;101047.03;;;1.50;68.49
62849;BME280;48941;49.516;8.286;2023-04-05T02:38:55;101039.97;;;1.52;68.67
62849;BME280;48941;49.516;8.286;2023-04-05T02:41:24;101041.78;;;1.50;68.78
62849;BME280;48941;49.516;8.286;2023-04-05T02:43:52;101043.53;;;1.50;68.77
62849;BME280;48941;49.516;8.286;2023-04-05T02:46:20;101052.25;;;1.52;68.92
62849;BME280;48941;49.516;8.286;2023-04-05T02:48:48;101041.78;;;1.50;68.88
62849;BME280;48941;49.516;8.286;2023-04-05T02:51:15;101036.53;;;1.50;69.07
62849;BME280;48941;49.516;8.286;2023-04-05T02:53:43;101043.66;;;1.47;68.80
62849;BME280;48941;49.516;8.286;2023-04-05T02:56:13;101040.38;;;1.40;68.65
62849;BME280;48941;49.516;8.286;2023-04-05T02:58:40;101035.97;;;1.41;68.68
62849;BME280;48941;49.516;8.286;2023-04-05T03:01:08;101036.88;;;1.39;68.63
62849;BME280;48941;49.516;8.286;2023-04-05T03:03:36;101030.72;;;1.41;68.37
62849;BME280;48941;49.516;8.286;2023-04-05T03:06:06;101023.69;;;1.41;68.13
62849;BME280;48941;49.516;8.286;2023-04-05T03:08:36;101028.06;;;1.42;67.81
62849;BME280;48941;49.516;8.286;2023-04-05T03:11:05;101020.53;;;1.30;68.16
62849;BME280;48941;49.516;8.286;2023-04-05T03:13:34;101025.91;;;1.27;68.34
62849;BME280;48941;49.516;8.286;2023-04-05T03:16:02;101022.44;;;1.26;68.43
62849;BME280;48941;49.516;8.286;2023-04-05T03:18:30;101023.47;;;1.21;68.48
62849;BME280;48941;49.516;8.286;2023-04-05T03:20:58;101030.84;;;1.08;68.80
62849;BME280;48941;49.516;8.286;2023-04-05T03:23:26;101025.09;;;0.96;69.34
62849;BME280;48941;49.516;8.286;2023-04-05T03:25:57;101021.72;;;0.91;69.65
62849;BME280;48941;49.516;8.286;2023-04-05T03:28:25;101023.53;;;0.89;70.05
62849;BME280;48941;49.516;8.286;2023-04-05T03:30:54;101028.94;;;0.85;70.37
62849;BME280;48941;49.516;8.286;2023-04-05T03:33:22;101028.97;;;0.83;70.47
62849;BME280;48941;49.516;8.286;2023-04-05T03:35:50;101019.41;;;0.82;70.82
62849;BME280;48941;49.516;8.286;2023-04-05T03:38:17;101028.19;;;0.79;71.29
62849;BME280;48941;49.516;8.286;2023-04-05T03:40:46;101017.91;;;0.73;71.67
62849;BME280;48941;49.516;8.286;2023-04-05T03:43:13;101024.72;;;0.79;71.57
62849;BME280;48941;49.516;8.286;2023-04-05T03:45:42;101029.91;;;0.82;71.36
62849;BME280;48941;49.516;8.286;2023-04-05T03:48:11;101023.84;;;0.80;71.41
62849;BME280;48941;49.516;8.286;2023-04-05T03:50:39;101026.50;;;0.78;71.34
62849;BME280;48941;49.516;8.286;2023-04-05T03:53:06;101027.59;;;0.70;71.36
62849;BME280;48941;49.516;8.286;2023-04-05T03:55:35;101022.44;;;0.68;71.50
62849;BME280;48941;49.516;8.286;2023-04-05T03:58:03;101021.47;;;0.71;71.23
62849;BME280;48941;49.516;8.286;2023-04-05T04:00:31;101016.22;;;0.71;71.16
62849;BME280;48941;49.516;8.286;2023-04-05T04:02:58;101012.69;;;0.72;70.76
62849;BME280;48941;49.516;8.286;2023-04-05T04:05:28;101014.41;;;0.73;70.58
62849;BME280;48941;49.516;8.286;2023-04-05T04:07:56;101013.50;;;0.74;70.03
62849;BME280;48941;49.516;8.286;2023-04-05T04:10:24;101010.06;;;0.72;70.15
62849;BME280;48941;49.516;8.286;2023-04-05T04:12:52;101003.13;;;0.71;69.76
62849;BME280;48941;49.516;8.286;2023-04-05T04:15:19;101007.50;;;0.70;69.77
62849;BME280;48941;49.516;8.286;2023-04-05T04:17:47;101008.44;;;0.68;69.93
62849;BME280;48941;49.516;8.286;2023-04-05T04:20:15;101012.88;;;0.66;69.84
62849;BME280;48941;49.516;8.286;2023-04-05T04:22:44;101006.88;;;0.62;69.91
62849;BME280;48941;49.516;8.286;2023-04-05T04:25:14;101002.56;;;0.59;69.84
62849;BME280;48941;49.516;8.286;2023-04-05T04:27:44;100999.16;;;0.56;69.97
62849;BME280;48941;49.516;8.286;2023-04-05T04:30:14;100999.22;;;0.54;69.95
62849;BME280;48941;49.516;8.286;2023-04-05T04:32:42;100991.31;;;0.56;69.98
62849;BME280;48941;49.516;8.286;2023-04-05T04:35:25;100993.03;;;0.57;70.08
62849;BME280;48941;49.516;8.286;2023-04-05T04:37:56;101000.91;;;0.57;70.14
62849;BME280;48941;49.516;8.286;2023-04-05T04:40:26;101003.56;;;0.55;70.36
62849;BME280;48941;49.516;8.286;2023-04-05T04:42:55;101005.50;;;0.49;70.28
62849;BME280;48941;49.516;8.286;2023-04-05T04:45:24;101011.75;;;0.45;70.38
62849;BME280;48941;49.516;8.286;2023-04-05T04:47:52;101006.72;;;0.37;70.72
62849;BME280;48941;49.516;8.286;2023-04-05T04:50:20;101010.31;;;0.33;70.75
62849;BME280;48941;49.516;8.286;2023-04-05T04:52:48;101006.03;;;0.30;70.74
62849;BME280;48941;49.516;8.286;2023-04-05T04:55:18;101013.91;;;0.30;70.75
62849;BME280;48941;49.516;8.286;2023-04-05T04:57:51;101011.16;;;0.33;70.95
62849;BME280;48941;49.516;8.286;2023-04-05T05:00:20;101016.41;;;0.33;70.95
62849;BME280;48941;49.516;8.286;2023-04-05T05:02:50;101021.63;;;0.35;70.98
62849;BME280;48941;49.516;8.286;2023-04-05T05:05:18;101020.84;;;0.31;71.23
62849;BME280;48941;49.516;8.286;2023-04-05T05:07:48;101019.88;;;0.34;71.38
62849;BME280;48941;49.516;8.286;2023-04-05T05:10:19;101019.84;;;0.35;71.29
62849;BME280;48941;49.516;8.286;2023-04-05T05:12:47;101025.91;;;0.37;71.62
62849;BME280;48941;49.516;8.286;2023-04-05T05:15:15;101020.69;;;0.36;71.85
62849;BME280;48941;49.516;8.286;2023-04-05T05:17:42;101023.38;;;0.34;72.14
62849;BME280;48941;49.516;8.286;2023-04-05T05:20:11;101025.22;;;0.31;72.36
62849;BME280;48941;49.516;8.286;2023-04-05T05:22:39;101019.06;;;0.32;72.69
62849;BME280;48941;49.516;8.286;2023-04-05T05:25:08;101026.03;;;0.33;72.71
62849;BME280;48941;49.516;8.286;2023-04-05T05:27:39;101020.81;;;0.33;73.12
62849;BME280;48941;49.516;8.286;2023-04-05T05:30:08;101020.88;;;0.30;73.42
62849;BME280;48941;49.516;8.286;2023-04-05T05:32:36;101024.41;;;0.29;73.56
62849;BME280;48941;49.516;8.286;2023-04-05T05:35:08;101027.88;;;0.29;73.78
62849;BME280;48941;49.516;8.286;2023-04-05T05:37:35;101030.47;;;0.31;74.17
62849;BME280;48941;49.516;8.286;2023-04-05T05:40:04;101022.56;;;0.32;74.06
62849;BME280;48941;49.516;8.286;2023-04-05T05:42:32;101026.78;;;0.38;74.46
62849;BME280;48941;49.516;8.286;2023-04-05T05:45:03;101029.31;;;0.41;74.35
62849;BME280;48941;49.516;8.286;2023-04-05T05:47:31;101030.16;;;0.42;74.46
62849;BME280;48941;49.516;8.286;2023-04-05T05:49:59;101025.81;;;0.42;74.53
62849;BME280;48941;49.516;8.286;2023-04-05T05:52:27;101034.66;;;0.38;74.96
62849;BME280;48941;49.516;8.286;2023-04-05T05:54:55;101027.59;;;0.40;75.37
62849;BME280;48941;49.516;8.286;2023-04-05T05:57:22;101037.03;;;0.46;75.30
62849;BME280;48941;49.516;8.286;2023-04-05T05:59:50;101042.88;;;0.55;74.89
62849;BME280;48941;49.516;8.286;2023-04-05T06:02:19;101039.25;;;0.59;75.01
62849;BME280;48941;49.516;8.286;2023-04-05T06:04:47;101035.72;;;0.62;74.82
62849;BME280;48941;49.516;8.286;2023-04-05T06:07:15;101038.16;;;0.68;74.71
62849;BME280;48941;49.516;8.286;2023-04-05T06:09:43;101031.75;;;0.78;74.70
62849;BME280;48941;49.516;8.286;2023-04-05T06:12:10;101035.81;;;0.89;74.70
62849;BME280;48941;49.516;8.286;2023-04-05T06:14:38;101038.16;;;0.98;74.95
62849;BME280;48941;49.516;8.286;2023-04-05T06:17:06;101025.69;;;1.06;75.04
62849;BME280;48941;49.516;8.286;2023-04-05T06:19:35;101028.19;;;1.09;75.11
62849;BME280;48941;49.516;8.286;2023-04-05T06:22:03;101027.91;;;1.18;74.86
62849;BME280;48941;49.516;8.286;2023-04-05T06:24:31;101035.47;;;1.28;74.42
62849;BME280;48941;49.516;8.286;2023-04-05T06:26:58;101032.59;;;1.37;74.54
62849;BME280;48941;49.516;8.286;2023-04-05T06:29:26;101034.97;;;1.45;74.46
62849;BME280;48941;49.516;8.286;2023-04-05T06:31:54;101043.38;;;1.56;73.96
62849;BME280;48941;49.516;8.286;2023-04-05T06:34:22;101042.16;;;1.66;73.29
62849;BME280;48941;49.516;8.286;2023-04-05T06:36:51;101037.50;;;1.74;72.34
62849;BME280;48941;49.516;8.286;2023-04-05T06:39:19;101043.25;;;1.86;71.90
62849;BME280;48941;49.516;8.286;2023-04-05T06:41:48;101037.63;;;1.96;71.59
62849;BME280;48941;49.516;8.286;2023-04-05T06:44:15;101028.53;;;2.07;71.22
62849;BME280;48941;49.516;8.286;2023-04-05T06:46:43;101031.69;;;2.16;70.42
62849;BME280;48941;49.516;8.286;2023-04-05T06:49:12;101034.75;;;2.29;69.41
62849;BME280;48941;49.516;8.286;2023-04-05T06:51:39;101037.16;;;2.35;68.46
62849;BME280;48941;49.516;8.286;2023-04-05T06:54:08;101028.19;;;2.41;67.74
62849;BME280;48941;49.516;8.286;2023-04-05T06:56:37;101034.09;;;2.48;67.03
62849;BME280;48941;49.516;8.286;2023-04-05T06:59:05;101026.50;;;2.64;66.10
62849;BME280;48941;49.516;8.286;2023-04-05T07:01:33;101031.22;;;2.77;65.40
62849;BME280;48941;49.516;8.286;2023-04-05T07:04:01;101036.78;;;2.93;64.87
62849;BME280;48941;49.516;8.286;2023-04-05T07:06:29;101035.44;;;3.05;64.17
62849;BME280;48941;49.516;8.286;2023-04-05T07:08:59;101039.13;;;3.23;64.36
62849;BME280;48941;49.516;8.286;2023-04-05T07:11:29;101036.75;;;3.39;63.52
62849;BME280;48941;49.516;8.286;2023-04-05T07:13:58;101044.06;;;3.54;62.58
62849;BME280;48941;49.516;8.286;2023-04-05T07:16:26;101035.38;;;3.73;61.46
62849;BME280;48941;49.516;8.286;2023-04-05T07:18:55;101039.28;;;3.85;60.96
62849;BME280;48941;49.516;8.286;2023-04-05T07:21:22;101042.09;;;4.02;60.96
62849;BME280;48941;49.516;8.286;2023-04-05T07:23:50;101042.06;;;4.23;60.55
62849;BME280;48941;49.516;8.286;2023-04-05T07:26:21;101040.19;;;4.45;59.17
62849;BME280;48941;49.516;8.286;2023-04-05T07:28:50;101033.06;;;4.68;58.68
62849;BME280;48941;49.516;8.286;2023-04-05T07:31:18;101036.50;;;4.89;58.02
62849;BME280;48941;49.516;8.286;2023-04-05T07:33:46;101026.72;;;5.10;56.69
62849;BME280;48941;49.516;8.286;2023-04-05T07:36:14;101027.41;;;5.32;56.53
62849;BME280;48941;49.516;8.286;2023-04-05T07:38:42;101030.09;;;5.50;54.58
62849;BME280;48941;49.516;8.286;2023-04-05T07:41:10;101019.16;;;5.57;54.25
62849;BME280;48941;49.516;8.286;2023-04-05T07:43:37;101027.84;;;5.77;53.93
62849;BME280;48941;49.516;8.286;2023-04-05T07:46:07;101019.09;;;5.94;52.99
62849;BME280;48941;49.516;8.286;2023-04-05T07:48:34;101024.16;;;6.16;52.52
62849;BME280;48941;49.516;8.286;2023-04-05T07:51:03;101023.47;;;6.30;51.48
62849;BME280;48941;49.516;8.286;2023-04-05T07:53:32;101030.50;;;6.47;51.15
62849;BME280;48941;49.516;8.286;2023-04-05T07:56:02;101033.03;;;6.66;50.56
62849;BME280;48941;49.516;8.286;2023-04-05T07:58:30;101033.75;;;6.85;49.98
62849;BME280;48941;49.516;8.286;2023-04-05T08:00:59;101033.78;;;7.01;49.33
62849;BME280;48941;49.516;8.286;2023-04-05T08:03:29;101030.59;;;7.10;48.22
62849;BME280;48941;49.516;8.286;2023-04-05T08:05:57;101031.44;;;7.27;48.38
62849;BME280;48941;49.516;8.286;2023-04-05T08:08:25;101037.69;;;7.42;48.13
62849;BME280;48941;49.516;8.286;2023-04-05T08:10:53;101034.19;;;7.57;47.56
62849;BME280;48941;49.516;8.286;2023-04-05T08:13:21;101036.38;;;7.65;47.64
62849;BME280;48941;49.516;8.286;2023-04-05T08:15:48;101033.88;;;7.77;46.76
62849;BME280;48941;49.516;8.286;2023-04-05T08:18:16;101025.59;;;7.98;46.84
62849;BME280;48941;49.516;8.286;2023-04-05T08:20:49;101028.03;;;8.17;46.17
62849;BME280;48941;49.516;8.286;2023-04-05T08:23:17;101019.13;;;8.32;46.18
62849;BME280;48941;49.516;8.286;2023-04-05T08:25:45;101020.97;;;8.46;46.17
62849;BME280;48941;49.516;8.286;2023-04-05T08:28:13;101030.66;;;8.62;45.16
62849;BME280;48941;49.516;8.286;2023-04-05T08:30:40;101023.81;;;8.72;45.35
62849;BME280;48941;49.516;8.286;2023-04-05T08:33:09;101028.06;;;8.74;45.00
62849;BME280;48941;49.516;8.286;2023-04-05T08:35:37;101014.22;;;8.84;45.08
62849;BME280;48941;49.516;8.286;2023-04-05T08:38:07;101021.81;;;8.90;44.72
62849;BME280;48941;49.516;8.286;2023-04-05T08:40:38;101026.81;;;9.09;44.58
62849;BME280;48941;49.516;8.286;2023-04-05T08:43:10;101014.44;;;9.22;43.90
62849;BME280;48941;49.516;8.286;2023-04-05T08:45:46;101017.03;;;9.36;42.89
62849;BME280;48941;49.516;8.286;2023-04-05T08:48:14;101014.75;;;9.45;42.89
62849;BME280;48941;49.516;8.286;2023-04-05T08:50:48;101024.44;;;9.73;42.45
62849;BME280;48941;49.516;8.286;2023-04-05T08:53:18;101021.78;;;9.73;41.10
62849;BME280;48941;49.516;8.286;2023-04-05T08:55:48;101013.06;;;9.84;40.38
62849;BME280;48941;49.516;8.286;2023-04-05T08:58:19;101009.97;;;9.90;40.36
62849;BME280;48941;49.516;8.286;2023-04-05T09:00:48;101019.03;;;10.00;39.95
62849;BME280;48941;49.516;8.286;2023-04-05T09:03:19;101021.09;;;10.09;39.28
62849;BME280;48941;49.516;8.286;2023-04-05T09:05:49;101021.22;;;10.21;37.28
62849;BME280;48941;49.516;8.286;2023-04-05T09:08:19;101014.09;;;10.21;36.32
62849;BME280;48941;49.516;8.286;2023-04-05T09:10:48;101015.28;;;10.30;36.07
62849;BME280;48941;49.516;8.286;2023-04-05T09:13:18;101013.91;;;10.37;35.73
62849;BME280;48941;49.516;8.286;2023-04-05T09:15:46;101007.63;;;10.51;36.24
62849;BME280;48941;49.516;8.286;2023-04-05T09:18:13;101006.22;;;10.71;35.52
62849;BME280;48941;49.516;8.286;2023-04-05T09:20:56;101008.22;;;10.80;35.79
62849;BME280;48941;49.516;8.286;2023-04-05T09:23:25;101013.09;;;10.99;35.52
62849;BME280;48941;49.516;8.286;2023-04-05T09:25:55;101006.47;;;11.05;34.44
62849;BME280;48941;49.516;8.286;2023-04-05T09:28:23;101008.13;;;11.19;34.07
62849;BME280;48941;49.516;8.286;2023-04-05T09:31:00;101003.47;;;11.33;33.50
62849;BME280;48941;49.516;8.286;2023-04-05T09:33:28;101012.50;;;11.44;32.93
62849;BME280;48941;49.516;8.286;2023-04-05T09:35:56;101006.59;;;11.51;32.64
62849;BME280;48941;49.516;8.286;2023-04-05T09:38:43;101004.78;;;11.52;33.04
62849;BME280;48941;49.516;8.286;2023-04-05T09:41:11;101006.97;;;11.58;32.52
62849;BME280;48941;49.516;8.286;2023-04-05T09:43:40;101014.97;;;11.58;31.38
62849;BME280;48941;49.516;8.286;2023-04-05T09:46:27;101005.06;;;11.60;31.67
62849;BME280;48941;49.516;8.286;2023-04-05T09:48:55;101011.69;;;11.79;31.50
62849;BME280;48941;49.516;8.286;2023-04-05T09:51:31;101013.47;;;11.91;31.97
62849;BME280;48941;49.516;8.286;2023-04-05T09:54:03;101004.41;;;12.05;31.14
62849;BME280;48941;49.516;8.286;2023-04-05T09:56:35;101004.44;;;12.27;30.33
62849;BME280;48941;49.516;8.286;2023-04-05T09:59:05;100997.41;;;12.38;30.65
62849;BME280;48941;49.516;8.286;2023-04-05T10:01:35;100999.59;;;12.32;31.51
62849;BME280;48941;49.516;8.286;2023-04-05T10:04:06;100996.16;;;12.08;32.08
62849;BME280;48941;49.516;8.286;2023-04-05T10:06:35;100998.38;;;12.25;31.28
62849;BME280;48941;49.516;8.286;2023-04-05T10:09:06;100999.72;;;12.31;31.05
62849;BME280;48941;49.516;8.286;2023-04-05T10:11:35;100992.06;;;12.26;31.22
62849;BME280;48941;49.516;8.286;2023-04-05T10:14:05;100995.59;;;12.27;31.39
62849;BME280;48941;49.516;8.286;2023-04-05T10:16:36;100997.66;;;12.46;31.39
62849;BME280;48941;49.516;8.286;2023-04-05T10:19:09;100991.59;;;12.55;30.37
62849;BME280;48941;49.516;8.286;2023-04-05T10:21:43;100992.94;;;12.61;30.18
62849;BME280;48941;49.516;8.286;2023-04-05T10:24:18;100985.16;;;12.80;30.45
62849;BME280;48941;49.516;8.286;2023-04-05T10:26:58;100975.53;;;13.00;29.16
62849;BME280;48941;49.516;8.286;2023-04-05T10:29:37;100980.28;;;12.74;29.37
62849;BME280;48941;49.516;8.286;2023-04-05T10:32:13;100982.13;;;12.85;29.56
62849;BME280;48941;49.516;8.286;2023-04-05T10:34:50;100979.66;;;13.04;28.70
62849;BME280;48941;49.516;8.286;2023-04-05T10:37:29;100966.88;;;13.08;29.29
62849;BME280;48941;49.516;8.286;2023-04-05T10:40:02;100969.13;;;13.24;28.83
62849;BME280;48941;49.516;8.286;2023-04-05T10:42:39;100969.88;;;13.37;28.32
62849;BME280;48941;49.516;8.286;2023-04-05T10:45:11;100962.13;;;13.55;28.05
62849;BME280;48941;49.516;8.286;2023-04-05T10:47:45;100963.47;;;13.61;28.14
62849;BME280;48941;49.516;8.286;2023-04-05T10:50:20;100959.34;;;13.78;27.93
62849;BME280;48941;49.516;8.286;2023-04-05T10:52:50;100964.59;;;14.00;27.69
62849;BME280;48941;49.516;8.286;2023-04-05T10:55:20;100957.66;;;14.19;27.63
62849;BME280;48941;49.516;8.286;2023-04-05T10:57:48;100955.22;;;14.15;26.52
62849;BME280;48941;49.516;8.286;2023-04-05T11:00:17;100955.03;;;14.28;27.12
62849;BME280;48941;49.516;8.286;2023-04-05T11:02:46;100950.19;;;14.53;26.42
62849;BME280;48941;49.516;8.286;2023-04-05T11:05:30;100951.41;;;14.70;24.47
62849;BME280;48941;49.516;8.286;2023-04-05T11:08:02;100941.56;;;14.49;25.28
62849;BME280;48941;49.516;8.286;2023-04-05T11:10:34;100937.44;;;14.66;23.96
62849;BME280;48941;49.516;8.286;2023-04-05T11:13:03;100953.25;;;14.79;24.52
62849;BME280;48941;49.516;8.286;2023-04-05T11:15:32;100948.50;;;14.92;24.21
62849;BME280;48941;49.516;8.286;2023-04-05T11:18:02;100942.84;;;14.86;23.62
62849;BME280;48941;49.516;8.286;2023-04-05T11:20:42;100939.50;;;15.13;24.42
62849;BME280;48941;49.516;8.286;2023-04-05T11:23:11;100947.00;;;15.39;24.31
62849;BME280;48941;49.516;8.286;2023-04-05T11:25:46;100938.00;;;15.40;23.91
62849;BME280;48941;49.516;8.286;2023-04-05T11:28:26;100938.09;;;15.19;23.40
62849;BME280;48941;49.516;8.286;2023-04-05T11:30:55;100931.19;;;15.26;22.77
62849;BME280;48941;49.516;8.286;2023-04-05T11:33:52;100929.34;;;15.07;23.14
62849;BME280;48941;49.516;8.286;2023-04-05T11:36:30;100930.91;;;15.39;23.70
62849;BME280;48941;49.516;8.286;2023-04-05T11:39:24;100923.56;;;15.41;23.34
62849;BME280;48941;49.516;8.286;2023-04-05T11:41:57;100922.56;;;15.51;22.98
62849;BME280;48941;49.516;8.286;2023-04-05T11:44:26;100913.28;;;15.46;23.05
62849;BME280;48941;49.516;8.286;2023-04-05T11:46:54;100912.81;;;15.50;23.00
62849;BME280;48941;49.516;8.286;2023-04-05T11:49:23;100919.03;;;15.61;22.11
62849;BME280;48941;49.516;8.286;2023-04-05T11:51:52;100912.25;;;15.27;22.08
62849;BME280;48941;49.516;8.286;2023-04-05T11:54:30;100909.56;;;15.37;22.86
62849;BME280;48941;49.516;8.286;2023-04-05T11:56:59;100911.69;;;15.63;22.40
62849;BME280;48941;49.516;8.286;2023-04-05T11:59:30;100912.13;;;15.68;22.92
62849;BME280;48941;49.516;8.286;2023-04-05T12:02:00;100916.75;;;15.85;21.52
62849;BME280;48941;49.516;8.286;2023-04-05T12:04:29;100911.78;;;16.00;21.93
62849;BME280;48941;49.516;8.286;2023-04-05T12:07:18;100913.22;;;15.65;21.94
62849;BME280;48941;49.516;8.286;2023-04-05T12:10:00;100910.41;;;15.57;21.70
62849;BME280;48941;49.516;8.286;2023-04-05T12:12:34;100910.69;;;15.73;22.62
62849;BME280;48941;49.516;8.286;2023-04-05T12:15:05;100903.31;;;15.95;22.85
62849;BME280;48941;49.516;8.286;2023-04-05T12:17:45;100904.28;;;16.04;22.71
62849;BME280;48941;49.516;8.286;2023-04-05T12:20:14;100890.75;;;15.96;22.35
62849;BME280;48941;49.516;8.286;2023-04-05T12:22:44;100888.09;;;15.86;21.73
62849;BME280;48941;49.516;8.286;2023-04-05T12:25:14;100881.81;;;15.95;22.05
62849;BME280;48941;49.516;8.286;2023-04-05T12:27:44;100882.03;;;16.11;22.37
62849;BME280;48941;49.516;8.286;2023-04-05T12:30:14;100884.03;;;16.09;21.86
62849;BME280;48941;49.516;8.286;2023-04-05T12:32:46;100884.78;;;16.29;21.42
62849;BME280;48941;49.516;8.286;2023-04-05T12:35:15;100880.56;;;16.27;21.10
62849;BME280;48941;49.516;8.286;2023-04-05T12:37:44;100882.75;;;16.41;22.02
62849;BME280;48941;49.516;8.286;2023-04-05T12:40:12;100880.88;;;16.24;21.66
62849;BME280;48941;49.516;8.286;2023-04-05T12:42:40;100873.13;;;16.11;22.37
62849;BME280;48941;49.516;8.286;2023-04-05T12:45:13;100881.75;;;16.15;22.74
62849;BME280;48941;49.516;8.286;2023-04-05T12:47:47;100870.28;;;16.22;22.28
62849;BME280;48941;49.516;8.286;2023-04-05T12:50:17;100876.22;;;16.26;21.99
62849;BME280;48941;49.516;8.286;2023-04-05T12:52:53;100868.25;;;16.34;21.95
62849;BME280;48941;49.516;8.286;2023-04-05T12:55:21;100864.25;;;16.38;21.76
62849;BME280;48941;49.516;8.286;2023-04-05T12:57:50;100854.59;;;16.45;21.58
62849;BME280;48941;49.516;8.286;2023-04-05T13:00:21;100852.19;;;16.70;21.30
62849;BME280;48941;49.516;8.286;2023-04-05T13:02:52;100850.44;;;16.79;20.93
62849;BME280;48941;49.516;8.286;2023-04-05T13:05:21;100848.78;;;16.96;21.00
62849;BME280;48941;49.516;8.286;2023-04-05T13:07:49;100848.25;;;16.92;20.74
62849;BME280;48941;49.516;8.286;2023-04-05T13:10:18;100849.00;;;17.02;20.22
62849;BME280;48941;49.516;8.286;2023-04-05T13:12:46;100848.06;;;16.76;20.73
62849;BME280;48941;49.516;8.286;2023-04-05T13:15:14;100848.41;;;16.63;21.26
62849;BME280;48941;49.516;8.286;2023-04-05T13:17:44;100839.13;;;16.75;21.04